Terminal Aerodrome Forecast
Issued by NWS Cleveland, OH

Home | Current Version | Previous Version | Graphics & Text | Print | Product List | Glossary Off
Versions: 1 2 3 4 5 6 7 8 9 10 11 12 13 14 15 16 17 18

480
FTUS41 KCLE 010804 AAA
TAFERI
TAF AMD
KERI 010804Z 0108/0206 11006KT P6SM VCSH SCT015 OVC050
      TEMPO 0109/0113 5SM -SHRA BKN015
     FM011300 12009KT P6SM VCSH BKN018
     FM011900 10006KT P6SM VCSH BKN035=

USA.gov is the U.S. government's official web portal to all federal, state and local government web resources and services.